createdAt,value
2022-11-20T00:01:15.986Z,99313.25
2022-11-20T00:03:42.898Z,99303.81
2022-11-20T00:06:13.506Z,99301.31
2022-11-20T00:08:40.262Z,99298.00
2022-11-20T00:11:15.516Z,99294.66
2022-11-20T00:13:44.254Z,99294.88
2022-11-20T00:16:12.770Z,99290.75
2022-11-20T00:18:39.466Z,99292.66
2022-11-20T00:21:08.514Z,99283.31
2022-11-20T00:23:35.647Z,99285.56
2022-11-20T00:26:04.757Z,99287.09
2022-11-20T00:28:31.422Z,99288.28
2022-11-20T00:31:09.890Z,99281.41
2022-11-20T00:33:36.623Z,99275.75
2022-11-20T00:36:19.884Z,99273.84
2022-11-20T00:38:47.454Z,99277.16
2022-11-20T00:41:16.598Z,99266.88
2022-11-20T00:43:43.797Z,99260.09
2022-11-20T00:46:12.886Z,99264.34
2022-11-20T00:48:39.666Z,99270.66
2022-11-20T00:51:06.979Z,99266.38
2022-11-20T00:53:34.432Z,99258.91
2022-11-20T00:56:04.526Z,99261.63
2022-11-20T00:58:36.108Z,99256.19
2022-11-20T01:01:04.621Z,99254.31
2022-11-20T01:03:44.286Z,99248.50
2022-11-20T01:06:16.801Z,99244.72
2022-11-20T01:08:44.418Z,99234.91
2022-11-20T01:11:16.828Z,99233.94
2022-11-20T01:13:44.541Z,99237.69
2022-11-20T01:16:20.072Z,99220.78
2022-11-20T01:18:49.287Z,99218.06
2022-11-20T01:21:22.476Z,99214.50
2022-11-20T01:23:50.572Z,99204.34
2022-11-20T01:26:24.592Z,99193.44
2022-11-20T01:28:52.217Z,99185.38
2022-11-20T01:31:20.083Z,99177.72
2022-11-20T01:33:48.489Z,99170.84
2022-11-20T01:36:16.501Z,99174.84
2022-11-20T01:38:44.225Z,99166.22
2022-11-20T01:41:32.507Z,99164.44
2022-11-20T01:44:00.216Z,99157.94
2022-11-20T01:46:27.027Z,99156.03
2022-11-20T01:49:03.513Z,99145.97
2022-11-20T01:51:42.946Z,99133.66
2022-11-20T01:54:16.004Z,99132.84
2022-11-20T01:56:45.341Z,99131.75
2022-11-20T01:59:16.004Z,99115.69
2022-11-20T02:01:42.828Z,99121.59
2022-11-20T02:04:10.997Z,99119.47
2022-11-20T02:06:45.403Z,99120.28
2022-11-20T02:09:12.757Z,99108.84
2022-11-20T02:11:39.521Z,99118.03
2022-11-20T02:14:06.539Z,99112.38
2022-11-20T02:16:37.265Z,99096.16
2022-11-20T02:19:08.585Z,99098.88
2022-11-20T02:21:44.244Z,99094.50
2022-11-20T02:24:16.124Z,99090.19
2022-11-20T02:27:05.799Z,99080.38
2022-11-20T02:29:38.379Z,99076.59
2022-11-20T02:32:05.343Z,99075.28
2022-11-20T02:34:32.573Z,99065.69
2022-11-20T02:37:00.706Z,99055.41
2022-11-20T02:39:29.410Z,99049.72
2022-11-20T02:41:57.706Z,99051.03
2022-11-20T02:44:24.349Z,99045.59
2022-11-20T02:46:50.962Z,99041.44
2022-11-20T02:49:18.104Z,99045.81
2022-11-20T02:51:44.899Z,99039.06
2022-11-20T02:54:11.507Z,99028.53
2022-11-20T02:56:40.187Z,99022.38
2022-11-20T02:59:07.133Z,99026.38
2022-11-20T03:01:33.820Z,99033.97
2022-11-20T03:04:00.564Z,99040.81
2022-11-20T03:06:27.142Z,99043.66
2022-11-20T03:08:53.771Z,99030.53
2022-11-20T03:11:21.342Z,99022.97
2022-11-20T03:13:48.043Z,99024.88
2022-11-20T03:16:17.923Z,99020.25
2022-11-20T03:18:45.053Z,99012.69
2022-11-20T03:21:13.218Z,98992.75
2022-11-20T03:23:40.721Z,98989.81
2022-11-20T03:26:13.603Z,98976.69
2022-11-20T03:28:40.825Z,98967.44
2022-11-20T03:31:08.958Z,98968.50
2022-11-20T03:33:35.609Z,98962.47
2022-11-20T03:36:04.593Z,98954.88
2022-11-20T03:38:32.522Z,98959.84
2022-11-20T03:41:08.589Z,98954.97
2022-11-20T03:43:35.645Z,98953.59
2022-11-20T03:46:02.501Z,98940.28
2022-11-20T03:48:29.664Z,98947.97
2022-11-20T03:51:16.898Z,98942.03
2022-11-20T03:53:45.605Z,98941.78
2022-11-20T03:56:13.840Z,98932.06
2022-11-20T03:58:41.511Z,98933.97
2022-11-20T04:01:17.548Z,98935.59
2022-11-20T04:03:46.265Z,98922.47
2022-11-20T04:06:25.014Z,98922.59
2022-11-20T04:08:53.979Z,98925.31
2022-11-20T04:11:29.953Z,98922.31
2022-11-20T04:13:59.347Z,98917.69
2022-11-20T04:16:29.846Z,98915.47
2022-11-20T04:18:58.869Z,98913.31
2022-11-20T04:21:26.513Z,98913.00
2022-11-20T04:23:54.211Z,98912.72
2022-11-20T04:26:22.380Z,98901.00
2022-11-20T04:28:49.036Z,98914.63
2022-11-20T04:31:18.073Z,98904.34
2022-11-20T04:33:45.305Z,98892.63
2022-11-20T04:36:18.157Z,98885.84
2022-11-20T04:38:45.075Z,98894.81
2022-11-20T04:41:19.957Z,98902.50
2022-11-20T04:43:51.190Z,98897.16
2022-11-20T04:46:19.153Z,98895.31
2022-11-20T04:48:46.568Z,98903.91
2022-11-20T04:51:13.466Z,98896.31
2022-11-20T04:53:40.353Z,98907.84
2022-11-20T04:56:08.980Z,98909.00
2022-11-20T04:58:36.044Z,98903.06
2022-11-20T05:01:13.531Z,98896.53
2022-11-20T05:03:42.657Z,98897.44
2022-11-20T05:06:12.200Z,98899.66
2022-11-20T05:08:39.266Z,98908.66
2022-11-20T05:11:09.179Z,98918.00
2022-11-20T05:13:36.121Z,98904.34
2022-11-20T05:16:11.194Z,98911.47
2022-11-20T05:18:39.179Z,98912.53
2022-11-20T05:21:06.375Z,98915.00
2022-11-20T05:23:33.791Z,98920.22
2022-11-20T05:26:01.427Z,98908.72
2022-11-20T05:28:29.607Z,98922.56
2022-11-20T05:30:56.636Z,98927.34
2022-11-20T05:33:23.702Z,98927.00
2022-11-20T05:35:50.644Z,98927.19
2022-11-20T05:38:17.298Z,98928.75
2022-11-20T05:40:43.900Z,98924.06
2022-11-20T05:43:10.554Z,98928.34
2022-11-20T05:45:37.280Z,98930.50
2022-11-20T05:48:04.183Z,98929.44
2022-11-20T05:50:31.116Z,98922.34
2022-11-20T05:53:01.407Z,98929.34
2022-11-20T05:55:28.936Z,98934.19
2022-11-20T05:57:56.158Z,98933.31
2022-11-20T06:00:23.201Z,98930.00
2022-11-20T06:02:50.003Z,98935.34
2022-11-20T06:05:16.827Z,98932.31
2022-11-20T06:07:44.436Z,98940.97
2022-11-20T06:10:11.298Z,98941.44
2022-11-20T06:12:37.957Z,98945.72
2022-11-20T06:15:05.804Z,98942.44
2022-11-20T06:17:32.508Z,98950.59
2022-11-20T06:19:59.288Z,98950.25
2022-11-20T06:22:25.995Z,98948.25
2022-11-20T06:24:52.683Z,98937.88
2022-11-20T06:27:19.315Z,98951.72
2022-11-20T06:29:45.989Z,98948.16
2022-11-20T06:32:12.621Z,98950.88
2022-11-20T06:34:39.650Z,98954.09
2022-11-20T06:37:06.340Z,98960.59
2022-11-20T06:39:32.973Z,98961.13
2022-11-20T06:41:59.685Z,98950.78
2022-11-20T06:44:27.047Z,98945.25
2022-11-20T06:46:53.666Z,98951.19
2022-11-20T06:49:20.912Z,98950.59
2022-11-20T06:51:47.819Z,98942.09
2022-11-20T06:54:14.549Z,98948.53
2022-11-20T06:56:41.146Z,98955.84
2022-11-20T06:59:08.283Z,98965.06
2022-11-20T07:01:36.020Z,98966.63
2022-11-20T07:04:04.167Z,98958.13
2022-11-20T07:06:31.110Z,98964.31
2022-11-20T07:08:58.120Z,98961.81
2022-11-20T07:11:25.817Z,98973.19
2022-11-20T07:13:52.450Z,98975.31
2022-11-20T07:16:19.175Z,98966.06
2022-11-20T07:18:50.173Z,98969.41
2022-11-20T07:21:17.270Z,98974.00
2022-11-20T07:23:43.866Z,98978.84
2022-11-20T07:26:13.084Z,98983.00
2022-11-20T07:28:39.823Z,98980.28
2022-11-20T07:31:08.284Z,98972.84
2022-11-20T07:33:34.866Z,98974.28
2022-11-20T07:36:01.938Z,98991.06
2022-11-20T07:38:28.577Z,98991.22
2022-11-20T07:40:56.774Z,98985.28
2022-11-20T07:43:23.461Z,98999.13
2022-11-20T07:45:50.142Z,98999.59
2022-11-20T07:48:16.825Z,98995.81
2022-11-20T07:50:43.807Z,98999.38
2022-11-20T07:53:10.737Z,99000.19
2022-11-20T07:55:37.903Z,98994.75
2022-11-20T07:58:04.515Z,98997.47
2022-11-20T08:00:31.597Z,98992.88
2022-11-20T08:02:58.433Z,98992.88
2022-11-20T08:05:25.119Z,98997.84
2022-11-20T08:07:52.794Z,99006.81
2022-11-20T08:10:19.563Z,99009.53
2022-11-20T08:13:09.631Z,99005.75
2022-11-20T08:15:37.762Z,99005.28
2022-11-20T08:20:53.427Z,99008.09
2022-11-20T08:23:21.020Z,99009.75
2022-11-20T08:25:51.586Z,99000.25
2022-11-20T08:28:21.186Z,99019.44
2022-11-20T08:30:48.836Z,99021.19
2022-11-20T08:33:15.757Z,99015.50
2022-11-20T08:35:43.567Z,99014.94
2022-11-20T08:38:10.651Z,99026.03
2022-11-20T08:40:38.669Z,99025.00
2022-11-20T08:43:05.422Z,99028.19
2022-11-20T08:45:34.691Z,99029.59
2022-11-20T08:48:09.197Z,99037.28
2022-11-20T08:50:36.065Z,99036.19
2022-11-20T08:53:06.639Z,99040.34
2022-11-20T08:55:33.898Z,99044.16
2022-11-20T08:58:05.716Z,99043.53
2022-11-20T09:00:33.524Z,99048.25
2022-11-20T09:03:01.955Z,99053.81
2022-11-20T09:05:28.905Z,99048.81
2022-11-20T09:07:59.606Z,99052.00
2022-11-20T09:10:27.424Z,99056.50
2022-11-20T09:13:00.835Z,99052.78
2022-11-20T09:15:27.602Z,99051.03
2022-11-20T09:18:01.608Z,99047.00
2022-11-20T09:20:30.269Z,99045.66
2022-11-20T09:22:57.993Z,99046.00
2022-11-20T09:25:24.649Z,99039.28
2022-11-20T09:27:58.527Z,99042.56
2022-11-20T09:30:25.741Z,99035.00
2022-11-20T09:32:52.525Z,99046.19
2022-11-20T09:35:19.284Z,99038.97
2022-11-20T09:37:46.676Z,99034.91
2022-11-20T09:40:23.931Z,99026.00
2022-11-20T09:42:59.513Z,99029.66
2022-11-20T09:45:54.009Z,99023.97
2022-11-20T09:48:59.178Z,99025.44
2022-11-20T09:52:01.812Z,99023.31
2022-11-20T09:54:38.638Z,99031.31
2022-11-20T09:57:12.860Z,99033.31
2022-11-20T09:59:43.097Z,99034.25
2022-11-20T10:02:31.734Z,99034.81
2022-11-20T10:05:03.146Z,99034.06
2022-11-20T10:07:42.539Z,99028.69
2022-11-20T10:10:34.802Z,99039.66
2022-11-20T10:13:18.791Z,99031.56
2022-11-20T10:16:09.162Z,99033.25
2022-11-20T10:19:12.321Z,99032.25
2022-11-20T10:21:56.763Z,99023.81
2022-11-20T10:24:43.778Z,99024.97
2022-11-20T10:27:29.213Z,99023.66
2022-11-20T10:30:09.738Z,99016.63
2022-11-20T10:32:46.351Z,99017.50
2022-11-20T10:35:45.734Z,99027.41
2022-11-20T10:38:26.230Z,99035.09
2022-11-20T10:41:20.503Z,99038.72
2022-11-20T10:43:51.686Z,99035.00
2022-11-20T10:46:25.277Z,99034.50
2022-11-20T10:48:52.273Z,99034.00
2022-11-20T10:51:47.317Z,99039.78
2022-11-20T10:54:40.286Z,99050.50
2022-11-20T10:57:41.680Z,99041.06
2022-11-20T11:00:13.363Z,99033.69
2022-11-20T11:02:50.613Z,99032.94
2022-11-20T11:05:48.174Z,99025.00
2022-11-20T11:08:20.303Z,99023.97
2022-11-20T11:10:54.397Z,99013.06
2022-11-20T11:13:29.269Z,99023.78
2022-11-20T11:15:56.513Z,99024.38
2022-11-20T11:18:26.297Z,99009.34
2022-11-20T11:20:55.476Z,98992.47
2022-11-20T11:23:33.230Z,98990.50
2022-11-20T11:26:03.057Z,98983.13
2022-11-20T11:28:29.908Z,98975.53
2022-11-20T11:30:56.985Z,98974.50
2022-11-20T11:33:31.854Z,98987.88
2022-11-20T11:36:05.075Z,98979.97
2022-11-20T11:38:44.134Z,98977.78
2022-11-20T11:41:17.891Z,98984.38
2022-11-20T11:44:12.632Z,98980.13
2022-11-20T11:46:42.013Z,98984.63
2022-11-20T11:49:11.448Z,98979.50
2022-11-20T11:52:05.928Z,98986.94
2022-11-20T11:54:51.925Z,98984.78
2022-11-20T11:57:24.738Z,98990.56
2022-11-20T12:00:11.394Z,98981.03
2022-11-20T12:02:47.323Z,98976.50
2022-11-20T12:05:25.265Z,98983.44
2022-11-20T12:08:11.055Z,98980.72
2022-11-20T12:10:45.895Z,98976.09
2022-11-20T12:13:21.827Z,98978.03
2022-11-20T12:15:49.796Z,98983.81
2022-11-20T12:18:20.088Z,98977.78
2022-11-20T12:21:15.322Z,98985.47
2022-11-20T12:24:00.706Z,98985.22
2022-11-20T12:26:45.880Z,98980.31
2022-11-20T12:29:34.399Z,98973.75
2022-11-20T12:32:23.450Z,98974.88
2022-11-20T12:35:12.396Z,98972.19
2022-11-20T12:37:56.956Z,98965.66
2022-11-20T12:40:38.171Z,98970.59
2022-11-20T12:43:26.642Z,98965.13
2022-11-20T12:46:14.696Z,98968.69
2022-11-20T12:48:56.797Z,98968.97
2022-11-20T12:52:05.023Z,98970.88
2022-11-20T12:54:43.935Z,98965.13
2022-11-20T12:57:31.985Z,98949.81
2022-11-20T13:00:10.828Z,98941.59
2022-11-20T13:02:49.612Z,98938.03
2022-11-20T13:05:25.514Z,98938.03
2022-11-20T13:07:54.731Z,98937.75
2022-11-20T13:10:39.421Z,98931.19
2022-11-20T13:13:40.868Z,98939.94
2022-11-20T13:16:45.282Z,98940.19
2022-11-20T13:19:17.144Z,98948.97
2022-11-20T13:21:51.779Z,98949.19
2022-11-20T13:24:24.502Z,98944.28
2022-11-20T13:27:02.405Z,98950.00
2022-11-20T13:29:30.754Z,98948.03
2022-11-20T13:32:17.949Z,98954.03
2022-11-20T13:34:54.970Z,98953.41
2022-11-20T13:37:39.244Z,98957.50
2022-11-20T13:40:23.926Z,98956.34
2022-11-20T13:43:05.646Z,98967.28
2022-11-20T13:45:33.437Z,98963.19
2022-11-20T13:48:21.802Z,98963.47
2022-11-20T13:51:05.885Z,98959.34
2022-11-20T13:53:57.397Z,98958.63
2022-11-20T13:56:46.208Z,98951.75
2022-11-20T13:59:25.055Z,98953.38
2022-11-20T14:01:51.859Z,98956.88
2022-11-20T14:04:29.758Z,98957.66
2022-11-20T14:06:57.282Z,98957.34
2022-11-20T14:09:29.672Z,98958.16
2022-11-20T14:11:56.724Z,98961.66
2022-11-20T14:14:27.628Z,98960.34
2022-11-20T14:17:24.387Z,98966.03
2022-11-20T14:19:53.904Z,98961.03
2022-11-20T14:22:27.867Z,98965.41
2022-11-20T14:25:13.002Z,98963.63
2022-11-20T14:27:44.529Z,98974.81
2022-11-20T14:30:22.148Z,98967.19
2022-11-20T14:32:52.833Z,98965.25
2022-11-20T14:35:29.274Z,98955.38
2022-11-20T14:37:57.285Z,98958.78
2022-11-20T14:40:33.081Z,98951.97
2022-11-20T14:43:00.606Z,98949.50
2022-11-20T14:45:28.268Z,98947.88
2022-11-20T14:47:57.707Z,98945.59
2022-11-20T14:50:29.959Z,98945.00
2022-11-20T14:52:59.366Z,98938.44
2022-11-20T14:55:32.122Z,98944.44
2022-11-20T14:58:04.546Z,98949.91
2022-11-20T15:00:33.176Z,98943.31
2022-11-20T15:03:00.686Z,98949.38
2022-11-20T15:05:46.627Z,98950.31
2022-11-20T15:08:14.767Z,98944.69
2022-11-20T15:11:16.892Z,98938.31
2022-11-20T15:13:43.511Z,98933.06
2022-11-20T15:16:20.658Z,98946.53
2022-11-20T15:18:48.160Z,98934.47
2022-11-20T15:21:17.023Z,98934.41
2022-11-20T15:23:47.053Z,98939.72
2022-11-20T15:26:19.875Z,98941.22
2022-11-20T15:28:51.292Z,98932.97
2022-11-20T15:31:21.810Z,98942.50
2022-11-20T15:33:49.374Z,98949.53
2022-11-20T15:36:16.072Z,98948.66
2022-11-20T15:38:43.512Z,98949.06
2022-11-20T15:41:11.435Z,98949.00
2022-11-20T15:43:38.153Z,98954.34
2022-11-20T15:46:10.116Z,98970.47
2022-11-20T15:48:46.212Z,98968.47
2022-11-20T15:51:36.026Z,98977.06
2022-11-20T15:54:14.689Z,98970.94
2022-11-20T15:56:42.989Z,98982.34
2022-11-20T15:59:09.903Z,98977.38
2022-11-20T16:01:37.287Z,98989.50
2022-11-20T16:04:07.892Z,98985.41
2022-11-20T16:06:35.880Z,98987.53
2022-11-20T16:09:02.528Z,98983.66
2022-11-20T16:11:29.155Z,98975.88
2022-11-20T16:14:14.353Z,98983.00
2022-11-20T16:16:42.451Z,98991.91
2022-11-20T16:19:13.607Z,98995.69
2022-11-20T16:21:42.658Z,98993.19
2022-11-20T16:24:14.755Z,98998.19
2022-11-20T16:26:42.255Z,98997.84
2022-11-20T16:29:09.397Z,98998.81
2022-11-20T16:31:36.225Z,98999.53
2022-11-20T16:34:11.874Z,99000.53
2022-11-20T16:36:46.295Z,98996.88
2022-11-20T16:39:15.018Z,99001.50
2022-11-20T16:41:43.433Z,99014.75
2022-11-20T16:44:11.675Z,99028.00
2022-11-20T16:46:40.673Z,99014.66
2022-11-20T16:49:12.916Z,99022.56
2022-11-20T16:53:03.867Z,99031.47
2022-11-20T16:55:30.875Z,99042.81
2022-11-20T16:57:57.547Z,99037.28
2022-11-20T17:00:24.147Z,99048.16
2022-11-20T17:02:50.755Z,99051.38
2022-11-20T17:05:17.348Z,99054.91
2022-11-20T17:07:43.977Z,99062.25
2022-11-20T17:10:10.610Z,99055.13
2022-11-20T17:12:37.194Z,99069.00
2022-11-20T17:15:04.164Z,99075.72
2022-11-20T17:17:30.820Z,99071.25
2022-11-20T17:19:57.430Z,99066.63
2022-11-20T17:22:23.997Z,99078.34
2022-11-20T17:24:50.625Z,99069.25
2022-11-20T17:27:17.319Z,99077.88
2022-11-20T17:29:43.908Z,99076.94
2022-11-20T17:32:10.753Z,99088.06
2022-11-20T17:34:37.477Z,99088.28
2022-11-20T17:37:04.136Z,99090.41
2022-11-20T17:39:30.806Z,99092.41
2022-11-20T17:42:15.681Z,99092.91
2022-11-20T17:44:42.721Z,99095.25
2022-11-20T17:47:09.410Z,99099.63
2022-11-20T17:49:35.995Z,99090.28
2022-11-20T17:52:02.584Z,99091.97
2022-11-20T17:54:30.307Z,99100.34
2022-11-20T17:57:16.402Z,99095.50
2022-11-20T17:59:43.068Z,99104.69
2022-11-20T18:02:11.110Z,99097.97
2022-11-20T18:04:37.863Z,99092.78
2022-11-20T18:07:04.630Z,99099.25
2022-11-20T18:09:31.364Z,99095.50
2022-11-20T18:11:57.941Z,99097.63
2022-11-20T18:14:34.607Z,99104.94
2022-11-20T18:17:05.329Z,99106.38
2022-11-20T18:19:38.772Z,99107.09
2022-11-20T18:22:08.899Z,99103.53
2022-11-20T18:24:36.713Z,99113.34
2022-11-20T18:27:04.778Z,99104.59
2022-11-20T18:29:31.777Z,99108.13
2022-11-20T18:31:59.880Z,99111.69
2022-11-20T18:34:27.409Z,99110.25
2022-11-20T18:36:54.126Z,99095.59
2022-11-20T18:39:20.890Z,99115.44
2022-11-20T18:42:05.905Z,99111.91
2022-11-20T18:44:51.362Z,99109.19
2022-11-20T18:47:20.941Z,99112.16
2022-11-20T18:49:53.000Z,99107.78
2022-11-20T18:52:22.691Z,99108.81
2022-11-20T18:54:49.314Z,99115.81
2022-11-20T18:57:20.530Z,99118.38
2022-11-20T18:59:47.380Z,99114.63
2022-11-20T19:02:18.805Z,99117.56
2022-11-20T19:04:45.892Z,99121.34
2022-11-20T19:07:13.688Z,99124.88
2022-11-20T19:09:42.441Z,99132.22
2022-11-20T19:12:10.894Z,99129.97
2022-11-20T19:14:37.811Z,99136.69
2022-11-20T19:17:06.539Z,99139.19
2022-11-20T19:19:34.181Z,99136.69
2022-11-20T19:22:00.883Z,99145.94
2022-11-20T19:24:28.462Z,99145.94
2022-11-20T19:26:58.454Z,99133.38
2022-11-20T19:29:25.941Z,99141.19
2022-11-20T19:31:58.397Z,99151.69
2022-11-20T19:34:26.197Z,99140.81
2022-11-20T19:36:53.939Z,99150.50
2022-11-20T19:39:23.975Z,99146.13
2022-11-20T19:41:50.854Z,99140.69
2022-11-20T19:44:17.947Z,99142.34
2022-11-20T19:46:44.711Z,99138.56
2022-11-20T19:49:13.951Z,99153.34
2022-11-20T19:51:46.281Z,99139.38
2022-11-20T19:54:13.065Z,99143.41
2022-11-20T19:56:39.724Z,99138.56
2022-11-20T19:59:06.452Z,99153.22
2022-11-20T20:01:33.168Z,99157.44
2022-11-20T20:04:05.381Z,99147.38
2022-11-20T20:06:34.591Z,99168.03
2022-11-20T20:09:10.657Z,99163.88
2022-11-20T20:11:37.990Z,99158.44
2022-11-20T20:14:13.653Z,99159.53
2022-11-20T20:16:41.237Z,99155.84
2022-11-20T20:19:08.240Z,99167.53
2022-11-20T20:21:36.315Z,99167.78
2022-11-20T20:24:03.171Z,99169.13
2022-11-20T20:26:31.736Z,99168.38
2022-11-20T20:28:59.432Z,99163.88
2022-11-20T20:31:28.053Z,99171.78
2022-11-20T20:33:57.567Z,99166.75
2022-11-20T20:36:24.745Z,99164.38
2022-11-20T20:39:02.831Z,99173.72
2022-11-20T20:41:29.880Z,99155.09
2022-11-20T20:44:15.450Z,99161.97
2022-11-20T20:46:42.230Z,99161.47
2022-11-20T20:49:10.171Z,99148.88
2022-11-20T20:51:37.188Z,99142.63
2022-11-20T20:54:04.614Z,99145.56
2022-11-20T20:56:31.406Z,99139.53
2022-11-20T20:58:58.144Z,99151.91
2022-11-20T21:01:28.721Z,99147.31
2022-11-20T21:03:57.195Z,99148.13
2022-11-20T21:06:24.441Z,99144.00
2022-11-20T21:08:51.128Z,99140.94
2022-11-20T21:11:20.136Z,99141.97
2022-11-20T21:13:47.732Z,99159.19
2022-11-20T21:16:16.501Z,99155.25
2022-11-20T21:18:43.566Z,99156.19
2022-11-20T21:21:32.203Z,99156.88
2022-11-20T21:23:59.449Z,99147.75
2022-11-20T21:26:26.113Z,99138.84
2022-11-20T21:28:52.859Z,99147.44
2022-11-20T21:31:22.241Z,99142.88
2022-11-20T21:33:51.040Z,99126.78
2022-11-20T21:36:20.531Z,99127.72
2022-11-20T21:38:48.187Z,99127.94
2022-11-20T21:41:15.926Z,99131.16
2022-11-20T21:43:44.203Z,99118.28
2022-11-20T21:46:12.945Z,99115.22
2022-11-20T21:48:41.050Z,99109.53
2022-11-20T21:51:18.995Z,99107.91
2022-11-20T21:53:47.347Z,99097.47
2022-11-20T21:56:20.262Z,99101.47
2022-11-20T21:58:48.074Z,99103.59
2022-11-20T22:01:21.617Z,99098.75
2022-11-20T22:03:53.201Z,99082.56
2022-11-20T22:06:20.999Z,99080.16
2022-11-20T22:08:48.813Z,99074.97
2022-11-20T22:11:19.950Z,99094.69
2022-11-20T22:14:05.669Z,99107.19
2022-11-20T22:16:36.835Z,99116.56
2022-11-20T22:19:04.723Z,99098.59
2022-11-20T22:21:32.125Z,99084.66
2022-11-20T22:23:59.634Z,99077.56
2022-11-20T22:26:28.723Z,99090.16
2022-11-20T22:28:57.325Z,99095.59
2022-11-20T22:31:26.231Z,99093.53
2022-11-20T22:33:53.667Z,99082.94
2022-11-20T22:36:25.362Z,99090.84
2022-11-20T22:38:52.640Z,99087.84
2022-11-20T22:41:27.930Z,99082.78
2022-11-20T22:43:56.706Z,99083.38
2022-11-20T22:46:23.942Z,99076.47
2022-11-20T22:48:58.691Z,99074.97
2022-11-20T22:51:27.930Z,99071.81
2022-11-20T22:53:55.045Z,99071.81
2022-11-20T22:56:22.152Z,99062.13
2022-11-20T22:58:50.801Z,99056.72
2022-11-20T23:01:35.009Z,99054.19
2022-11-20T23:04:04.901Z,99047.22
2022-11-20T23:06:35.391Z,99048.88
2022-11-20T23:09:04.153Z,99044.06
2022-11-20T23:11:32.076Z,99053.41
2022-11-20T23:14:01.134Z,99052.13
2022-11-20T23:16:29.573Z,99049.03
2022-11-20T23:19:00.846Z,99040.41
2022-11-20T23:21:27.936Z,99043.13
2022-11-20T23:23:56.735Z,99037.13
2022-11-20T23:26:25.665Z,99026.50
2022-11-20T23:28:54.120Z,99006.91
2022-11-20T23:31:20.820Z,99004.19
2022-11-20T23:33:47.586Z,98992.38
2022-11-20T23:36:14.760Z,98984.09
2022-11-20T23:38:41.892Z,98982.50
2022-11-20T23:41:09.156Z,98981.56
2022-11-20T23:43:35.900Z,98984.13
2022-11-20T23:46:03.910Z,98974.53
2022-11-20T23:48:32.778Z,98974.53
2022-11-20T23:51:00.262Z,98974.16
2022-11-20T23:53:27.858Z,98974.16
2022-11-20T23:55:56.590Z,98968.75
2022-11-20T23:58:25.346Z,98967.09
